sensor_id;sensor_type;location;lat;lon;timestamp;temperature;humidity
17565;DHT22;62994;52.126;5.596;2022-12-07T00:01:43;6.20;99.90
17565;DHT22;62994;52.126;5.596;2022-12-07T00:04:12;6.20;99.90
17565;DHT22;62994;52.126;5.596;2022-12-07T00:06:43;6.10;99.90
17565;DHT22;62994;52.126;5.596;2022-12-07T00:09:13;6.10;99.90
17565;DHT22;62994;52.126;5.596;2022-12-07T00:11:43;6.10;99.90
17565;DHT22;62994;52.126;5.596;2022-12-07T00:14:12;6.10;99.90
17565;DHT22;62994;52.126;5.596;2022-12-07T00:16:53;6.00;99.90
17565;DHT22;62994;52.126;5.596;2022-12-07T00:19:25;6.00;99.90
17565;DHT22;62994;52.126;5.596;2022-12-07T00:21:53;6.00;99.90
17565;DHT22;62994;52.126;5.596;2022-12-07T00:24:26;6.00;99.90
17565;DHT22;62994;52.126;5.596;2022-12-07T00:26:54;6.00;99.90
17565;DHT22;62994;52.126;5.596;2022-12-07T00:29:33;6.00;99.90
17565;DHT22;62994;52.126;5.596;2022-12-07T00:32:03;6.00;99.90
17565;DHT22;62994;52.126;5.596;2022-12-07T00:34:30;6.00;99.90
17565;DHT22;62994;52.126;5.596;2022-12-07T00:36:57;5.90;99.90
17565;DHT22;62994;52.126;5.596;2022-12-07T00:39:30;6.00;99.90
17565;DHT22;62994;52.126;5.596;2022-12-07T00:41:57;5.90;99.90
17565;DHT22;62994;52.126;5.596;2022-12-07T00:44:29;5.90;99.90
17565;DHT22;62994;52.126;5.596;2022-12-07T00:46:58;5.90;99.90
17565;DHT22;62994;52.126;5.596;2022-12-07T00:49:27;5.90;99.90
17565;DHT22;62994;52.126;5.596;2022-12-07T00:51:57;5.90;99.90
17565;DHT22;62994;52.126;5.596;2022-12-07T00:54:31;5.90;99.90
17565;DHT22;62994;52.126;5.596;2022-12-07T00:57:03;5.90;99.90
17565;DHT22;62994;52.126;5.596;2022-12-07T00:59:34;5.90;99.90
17565;DHT22;62994;52.126;5.596;2022-12-07T01:02:06;5.80;99.90
17565;DHT22;62994;52.126;5.596;2022-12-07T01:04:46;5.80;99.90
17565;DHT22;62994;52.126;5.596;2022-12-07T01:07:14;5.80;99.90
17565;DHT22;62994;52.126;5.596;2022-12-07T01:09:50;5.80;99.90
17565;DHT22;62994;52.126;5.596;2022-12-07T01:12:28;5.80;99.90
17565;DHT22;62994;52.126;5.596;2022-12-07T01:15:01;5.80;99.90
17565;DHT22;62994;52.126;5.596;2022-12-07T01:17:34;5.80;99.90
17565;DHT22;62994;52.126;5.596;2022-12-07T01:20:03;5.80;99.90
17565;DHT22;62994;52.126;5.596;2022-12-07T01:22:30;5.70;99.90
17565;DHT22;62994;52.126;5.596;2022-12-07T01:25:04;5.70;99.90
17565;DHT22;62994;52.126;5.596;2022-12-07T01:27:45;5.70;99.90
17565;DHT22;62994;52.126;5.596;2022-12-07T01:30:15;5.70;99.90
17565;DHT22;62994;52.126;5.596;2022-12-07T01:32:47;5.60;99.90
17565;DHT22;62994;52.126;5.596;2022-12-07T01:35:20;5.70;99.90
17565;DHT22;62994;52.126;5.596;2022-12-07T01:37:50;5.70;99.90
17565;DHT22;62994;52.126;5.596;2022-12-07T01:40:23;5.60;99.90
17565;DHT22;62994;52.126;5.596;2022-12-07T01:42:50;5.60;99.90
17565;DHT22;62994;52.126;5.596;2022-12-07T01:45:39;5.60;99.90
17565;DHT22;62994;52.126;5.596;2022-12-07T01:48:22;5.60;99.90
17565;DHT22;62994;52.126;5.596;2022-12-07T01:50:55;5.60;99.90
17565;DHT22;62994;52.126;5.596;2022-12-07T01:53:27;5.50;99.90
17565;DHT22;62994;52.126;5.596;2022-12-07T01:55:58;5.50;99.90
17565;DHT22;62994;52.126;5.596;2022-12-07T01:58:26;5.50;99.90
17565;DHT22;62994;52.126;5.596;2022-12-07T02:01:02;5.50;99.90
17565;DHT22;62994;52.126;5.596;2022-12-07T02:03:41;5.60;99.90
17565;DHT22;62994;52.126;5.596;2022-12-07T02:06:19;5.60;99.90
17565;DHT22;62994;52.126;5.596;2022-12-07T02:08:49;5.60;99.90
17565;DHT22;62994;52.126;5.596;2022-12-07T02:11:24;5.50;99.90
17565;DHT22;62994;52.126;5.596;2022-12-07T02:13:57;5.50;99.90
17565;DHT22;62994;52.126;5.596;2022-12-07T02:16:34;5.50;99.90
17565;DHT22;62994;52.126;5.596;2022-12-07T02:19:37;5.50;99.90
17565;DHT22;62994;52.126;5.596;2022-12-07T02:22:16;5.40;99.90
17565;DHT22;62994;52.126;5.596;2022-12-07T02:24:53;5.40;99.90
17565;DHT22;62994;52.126;5.596;2022-12-07T02:27:39;5.40;99.90
17565;DHT22;62994;52.126;5.596;2022-12-07T02:30:17;5.40;99.90
17565;DHT22;62994;52.126;5.596;2022-12-07T02:32:57;5.40;99.90
17565;DHT22;62994;52.126;5.596;2022-12-07T02:35:34;5.40;99.90
17565;DHT22;62994;52.126;5.596;2022-12-07T02:38:12;5.30;99.90
17565;DHT22;62994;52.126;5.596;2022-12-07T02:40:48;5.30;99.90
17565;DHT22;62994;52.126;5.596;2022-12-07T02:43:19;5.30;99.90
17565;DHT22;62994;52.126;5.596;2022-12-07T02:45:52;5.30;99.90
17565;DHT22;62994;52.126;5.596;2022-12-07T02:48:23;5.30;99.90
17565;DHT22;62994;52.126;5.596;2022-12-07T02:50:54;5.30;99.90
17565;DHT22;62994;52.126;5.596;2022-12-07T02:53:35;5.30;99.90
17565;DHT22;62994;52.126;5.596;2022-12-07T02:56:12;5.30;99.90
17565;DHT22;62994;52.126;5.596;2022-12-07T02:58:49;5.30;99.90
17565;DHT22;62994;52.126;5.596;2022-12-07T03:01:28;5.20;99.90
17565;DHT22;62994;52.126;5.596;2022-12-07T03:04:09;5.20;99.90
17565;DHT22;62994;52.126;5.596;2022-12-07T03:06:53;5.20;99.90
17565;DHT22;62994;52.126;5.596;2022-12-07T03:09:30;5.20;99.90
17565;DHT22;62994;52.126;5.596;2022-12-07T03:12:09;5.20;99.90
17565;DHT22;62994;52.126;5.596;2022-12-07T03:14:42;5.20;99.90
17565;DHT22;62994;52.126;5.596;2022-12-07T03:17:17;5.20;99.90
17565;DHT22;62994;52.126;5.596;2022-12-07T03:19:47;5.20;99.90
17565;DHT22;62994;52.126;5.596;2022-12-07T03:22:18;5.20;99.90
17565;DHT22;62994;52.126;5.596;2022-12-07T03:24:51;5.10;99.90
17565;DHT22;62994;52.126;5.596;2022-12-07T03:27:24;5.20;99.90
17565;DHT22;62994;52.126;5.596;2022-12-07T03:29:59;5.20;99.90
17565;DHT22;62994;52.126;5.596;2022-12-07T03:32:41;5.20;99.90
17565;DHT22;62994;52.126;5.596;2022-12-07T03:35:14;5.20;99.90
17565;DHT22;62994;52.126;5.596;2022-12-07T03:37:48;5.20;99.90
17565;DHT22;62994;52.126;5.596;2022-12-07T03:40:28;5.30;99.90
17565;DHT22;62994;52.126;5.596;2022-12-07T03:42:59;5.50;99.90
17565;DHT22;62994;52.126;5.596;2022-12-07T03:45:33;5.40;99.90
17565;DHT22;62994;52.126;5.596;2022-12-07T03:48:08;5.40;99.90
17565;DHT22;62994;52.126;5.596;2022-12-07T03:50:49;5.40;99.90
17565;DHT22;62994;52.126;5.596;2022-12-07T03:53:31;5.40;99.90
17565;DHT22;62994;52.126;5.596;2022-12-07T03:56:01;5.40;99.90
17565;DHT22;62994;52.126;5.596;2022-12-07T03:58:30;5.40;99.90
17565;DHT22;62994;52.126;5.596;2022-12-07T04:01:11;5.30;99.90
17565;DHT22;62994;52.126;5.596;2022-12-07T04:03:44;5.30;99.90
17565;DHT22;62994;52.126;5.596;2022-12-07T04:06:11;5.30;99.90
17565;DHT22;62994;52.126;5.596;2022-12-07T04:08:40;5.30;99.90
17565;DHT22;62994;52.126;5.596;2022-12-07T04:11:07;5.20;99.90
17565;DHT22;62994;52.126;5.596;2022-12-07T04:13:37;5.30;99.90
17565;DHT22;62994;52.126;5.596;2022-12-07T04:16:18;5.30;99.90
17565;DHT22;62994;52.126;5.596;2022-12-07T04:18:48;5.30;99.90
17565;DHT22;62994;52.126;5.596;2022-12-07T04:21:23;5.30;99.90
17565;DHT22;62994;52.126;5.596;2022-12-07T04:23:52;5.20;99.90
17565;DHT22;62994;52.126;5.596;2022-12-07T04:26:23;5.30;99.90
17565;DHT22;62994;52.126;5.596;2022-12-07T04:28:55;5.30;99.90
17565;DHT22;62994;52.126;5.596;2022-12-07T04:31:27;5.20;99.90
17565;DHT22;62994;52.126;5.596;2022-12-07T04:33:55;5.20;99.90
17565;DHT22;62994;52.126;5.596;2022-12-07T04:36:33;5.20;99.90
17565;DHT22;62994;52.126;5.596;2022-12-07T04:39:05;5.20;99.90
17565;DHT22;62994;52.126;5.596;2022-12-07T04:41:35;5.20;99.90
17565;DHT22;62994;52.126;5.596;2022-12-07T04:44:08;5.20;99.90
17565;DHT22;62994;52.126;5.596;2022-12-07T04:46:35;5.20;99.90
17565;DHT22;62994;52.126;5.596;2022-12-07T04:49:04;5.20;99.90
17565;DHT22;62994;52.126;5.596;2022-12-07T04:51:31;5.20;99.90
17565;DHT22;62994;52.126;5.596;2022-12-07T04:53:58;5.20;99.90
17565;DHT22;62994;52.126;5.596;2022-12-07T04:56:25;5.30;99.90
17565;DHT22;62994;52.126;5.596;2022-12-07T04:58:53;5.20;99.90
17565;DHT22;62994;52.126;5.596;2022-12-07T05:01:25;5.30;99.90
17565;DHT22;62994;52.126;5.596;2022-12-07T05:03:57;5.20;99.90
17565;DHT22;62994;52.126;5.596;2022-12-07T05:06:28;5.30;99.90
17565;DHT22;62994;52.126;5.596;2022-12-07T05:08:55;5.20;99.90
17565;DHT22;62994;52.126;5.596;2022-12-07T05:11:28;5.20;99.90
17565;DHT22;62994;52.126;5.596;2022-12-07T05:14:14;5.20;99.90
17565;DHT22;62994;52.126;5.596;2022-12-07T05:16:47;5.20;99.90
17565;DHT22;62994;52.126;5.596;2022-12-07T05:19:15;5.20;99.90
17565;DHT22;62994;52.126;5.596;2022-12-07T05:21:44;5.20;99.90
17565;DHT22;62994;52.126;5.596;2022-12-07T05:24:12;5.10;99.90
17565;DHT22;62994;52.126;5.596;2022-12-07T05:26:40;5.10;99.90
17565;DHT22;62994;52.126;5.596;2022-12-07T05:29:10;5.10;99.90
17565;DHT22;62994;52.126;5.596;2022-12-07T05:31:39;5.10;99.90
17565;DHT22;62994;52.126;5.596;2022-12-07T05:34:11;5.10;99.90
17565;DHT22;62994;52.126;5.596;2022-12-07T05:36:39;5.10;99.90
17565;DHT22;62994;52.126;5.596;2022-12-07T05:39:08;5.10;99.90
17565;DHT22;62994;52.126;5.596;2022-12-07T05:41:38;5.10;99.90
17565;DHT22;62994;52.126;5.596;2022-12-07T05:44:23;5.10;99.90
17565;DHT22;62994;52.126;5.596;2022-12-07T05:46:56;5.10;99.90
17565;DHT22;62994;52.126;5.596;2022-12-07T05:49:25;5.10;99.90
17565;DHT22;62994;52.126;5.596;2022-12-07T05:51:52;5.00;99.90
17565;DHT22;62994;52.126;5.596;2022-12-07T05:54:23;5.10;99.90
17565;DHT22;62994;52.126;5.596;2022-12-07T05:56:51;5.10;99.90
17565;DHT22;62994;52.126;5.596;2022-12-07T05:59:23;5.00;99.90
17565;DHT22;62994;52.126;5.596;2022-12-07T06:01:50;5.00;99.90
17565;DHT22;62994;52.126;5.596;2022-12-07T06:04:20;5.00;99.90
17565;DHT22;62994;52.126;5.596;2022-12-07T06:06:48;5.00;99.90
17565;DHT22;62994;52.126;5.596;2022-12-07T06:09:17;5.00;99.90
17565;DHT22;62994;52.126;5.596;2022-12-07T06:11:46;5.00;99.90
17565;DHT22;62994;52.126;5.596;2022-12-07T06:14:33;5.00;99.90
17565;DHT22;62994;52.126;5.596;2022-12-07T06:17:00;5.00;99.90
17565;DHT22;62994;52.126;5.596;2022-12-07T06:19:28;5.00;99.90
17565;DHT22;62994;52.126;5.596;2022-12-07T06:21:58;5.00;99.90
17565;DHT22;62994;52.126;5.596;2022-12-07T06:24:25;5.00;99.90
17565;DHT22;62994;52.126;5.596;2022-12-07T06:26:54;5.10;99.90
17565;DHT22;62994;52.126;5.596;2022-12-07T06:29:25;5.20;99.90
17565;DHT22;62994;52.126;5.596;2022-12-07T06:31:58;5.20;99.90
17565;DHT22;62994;52.126;5.596;2022-12-07T06:34:30;5.20;99.90
17565;DHT22;62994;52.126;5.596;2022-12-07T06:37:01;5.10;99.90
17565;DHT22;62994;52.126;5.596;2022-12-07T06:39:32;5.10;99.90
17565;DHT22;62994;52.126;5.596;2022-12-07T06:42:03;5.00;99.90
17565;DHT22;62994;52.126;5.596;2022-12-07T06:44:32;5.00;99.90
17565;DHT22;62994;52.126;5.596;2022-12-07T06:47:01;5.00;99.90
17565;DHT22;62994;52.126;5.596;2022-12-07T06:49:35;5.00;99.90
17565;DHT22;62994;52.126;5.596;2022-12-07T06:52:13;5.00;99.90
17565;DHT22;62994;52.126;5.596;2022-12-07T06:54:44;4.90;99.90
17565;DHT22;62994;52.126;5.596;2022-12-07T06:57:28;4.90;99.90
17565;DHT22;62994;52.126;5.596;2022-12-07T06:59:56;4.90;99.90
17565;DHT22;62994;52.126;5.596;2022-12-07T07:02:27;4.90;99.90
17565;DHT22;62994;52.126;5.596;2022-12-07T07:04:58;4.90;99.90
17565;DHT22;62994;52.126;5.596;2022-12-07T07:07:27;4.90;99.90
17565;DHT22;62994;52.126;5.596;2022-12-07T07:10:10;4.90;99.90
17565;DHT22;62994;52.126;5.596;2022-12-07T07:12:39;4.90;99.90
17565;DHT22;62994;52.126;5.596;2022-12-07T07:15:07;4.80;99.90
17565;DHT22;62994;52.126;5.596;2022-12-07T07:17:39;4.80;99.90
17565;DHT22;62994;52.126;5.596;2022-12-07T07:20:08;4.80;99.90
17565;DHT22;62994;52.126;5.596;2022-12-07T07:22:40;4.80;99.90
17565;DHT22;62994;52.126;5.596;2022-12-07T07:25:07;4.80;99.90
17565;DHT22;62994;52.126;5.596;2022-12-07T07:27:41;4.80;99.90
17565;DHT22;62994;52.126;5.596;2022-12-07T07:30:09;4.80;99.90
17565;DHT22;62994;52.126;5.596;2022-12-07T07:32:38;4.80;99.90
17565;DHT22;62994;52.126;5.596;2022-12-07T07:35:06;4.80;99.90
17565;DHT22;62994;52.126;5.596;2022-12-07T07:37:34;4.80;99.90
17565;DHT22;62994;52.126;5.596;2022-12-07T07:40:03;4.70;99.90
17565;DHT22;62994;52.126;5.596;2022-12-07T07:42:31;4.80;99.90
17565;DHT22;62994;52.126;5.596;2022-12-07T07:44:59;4.80;99.90
17565;DHT22;62994;52.126;5.596;2022-12-07T07:47:28;4.70;99.90
17565;DHT22;62994;52.126;5.596;2022-12-07T07:49:55;4.70;99.90
17565;DHT22;62994;52.126;5.596;2022-12-07T07:52:27;4.70;99.90
17565;DHT22;62994;52.126;5.596;2022-12-07T07:54:54;4.70;99.90
17565;DHT22;62994;52.126;5.596;2022-12-07T07:57:24;4.70;99.90
17565;DHT22;62994;52.126;5.596;2022-12-07T07:59:59;4.70;99.90
17565;DHT22;62994;52.126;5.596;2022-12-07T08:02:28;4.70;99.90
17565;DHT22;62994;52.126;5.596;2022-12-07T08:05:04;4.70;99.90
17565;DHT22;62994;52.126;5.596;2022-12-07T08:07:31;4.70;99.90
17565;DHT22;62994;52.126;5.596;2022-12-07T08:10:03;4.70;99.90
17565;DHT22;62994;52.126;5.596;2022-12-07T08:12:36;4.70;99.90
17565;DHT22;62994;52.126;5.596;2022-12-07T08:15:28;4.80;99.90
17565;DHT22;62994;52.126;5.596;2022-12-07T08:18:10;4.90;99.90
17565;DHT22;62994;52.126;5.596;2022-12-07T08:20:38;4.90;99.90
17565;DHT22;62994;52.126;5.596;2022-12-07T08:23:06;4.90;99.90
17565;DHT22;62994;52.126;5.596;2022-12-07T08:25:40;4.90;99.90
17565;DHT22;62994;52.126;5.596;2022-12-07T08:28:09;4.90;99.90
17565;DHT22;62994;52.126;5.596;2022-12-07T08:30:38;4.80;99.90
17565;DHT22;62994;52.126;5.596;2022-12-07T08:33:05;4.80;99.90
17565;DHT22;62994;52.126;5.596;2022-12-07T08:35:42;4.80;99.90
17565;DHT22;62994;52.126;5.596;2022-12-07T08:38:10;4.80;99.90
17565;DHT22;62994;52.126;5.596;2022-12-07T08:40:38;4.80;99.90
17565;DHT22;62994;52.126;5.596;2022-12-07T08:43:05;4.80;99.90
17565;DHT22;62994;52.126;5.596;2022-12-07T08:45:48;4.80;99.90
17565;DHT22;62994;52.126;5.596;2022-12-07T08:48:27;4.80;99.90
17565;DHT22;62994;52.126;5.596;2022-12-07T08:50:58;4.80;99.90
17565;DHT22;62994;52.126;5.596;2022-12-07T08:53:31;4.90;99.90
17565;DHT22;62994;52.126;5.596;2022-12-07T08:55:58;4.90;99.90
17565;DHT22;62994;52.126;5.596;2022-12-07T08:58:28;4.90;99.90
17565;DHT22;62994;52.126;5.596;2022-12-07T09:01:02;4.90;99.90
17565;DHT22;62994;52.126;5.596;2022-12-07T09:03:44;4.90;99.90
17565;DHT22;62994;52.126;5.596;2022-12-07T09:06:13;4.90;99.90
17565;DHT22;62994;52.126;5.596;2022-12-07T09:08:46;4.90;99.90
17565;DHT22;62994;52.126;5.596;2022-12-07T09:11:18;5.00;99.90
17565;DHT22;62994;52.126;5.596;2022-12-07T09:13:47;5.00;99.90
17565;DHT22;62994;52.126;5.596;2022-12-07T09:16:16;5.00;99.90
17565;DHT22;62994;52.126;5.596;2022-12-07T09:18:45;5.00;99.90
17565;DHT22;62994;52.126;5.596;2022-12-07T09:21:14;5.00;99.90
17565;DHT22;62994;52.126;5.596;2022-12-07T09:23:43;5.00;99.90
17565;DHT22;62994;52.126;5.596;2022-12-07T09:26:12;5.10;99.90
17565;DHT22;62994;52.126;5.596;2022-12-07T09:28:45;5.10;99.90
17565;DHT22;62994;52.126;5.596;2022-12-07T09:31:14;5.10;99.90
17565;DHT22;62994;52.126;5.596;2022-12-07T09:33:43;5.10;99.90
17565;DHT22;62994;52.126;5.596;2022-12-07T09:36:11;5.20;99.90
17565;DHT22;62994;52.126;5.596;2022-12-07T09:38:51;5.20;99.90
17565;DHT22;62994;52.126;5.596;2022-12-07T09:41:30;5.20;99.90
17565;DHT22;62994;52.126;5.596;2022-12-07T09:44:05;5.20;99.90
17565;DHT22;62994;52.126;5.596;2022-12-07T09:46:43;5.30;99.90
17565;DHT22;62994;52.126;5.596;2022-12-07T09:49:14;5.30;99.90
17565;DHT22;62994;52.126;5.596;2022-12-07T09:51:58;5.30;99.90
17565;DHT22;62994;52.126;5.596;2022-12-07T09:54:27;5.40;99.90
17565;DHT22;62994;52.126;5.596;2022-12-07T09:56:57;5.40;99.90
17565;DHT22;62994;52.126;5.596;2022-12-07T09:59:25;5.40;99.90
17565;DHT22;62994;52.126;5.596;2022-12-07T10:05:14;5.50;99.90
17565;DHT22;62994;52.126;5.596;2022-12-07T10:07:45;5.50;99.90
17565;DHT22;62994;52.126;5.596;2022-12-07T10:10:15;5.50;99.90
17565;DHT22;62994;52.126;5.596;2022-12-07T10:12:58;5.50;99.90
17565;DHT22;62994;52.126;5.596;2022-12-07T10:15:44;5.60;99.90
17565;DHT22;62994;52.126;5.596;2022-12-07T10:18:30;5.60;99.90
17565;DHT22;62994;52.126;5.596;2022-12-07T10:21:10;5.70;99.90
17565;DHT22;62994;52.126;5.596;2022-12-07T10:24:00;5.60;99.90
17565;DHT22;62994;52.126;5.596;2022-12-07T10:26:38;5.70;99.90
17565;DHT22;62994;52.126;5.596;2022-12-07T10:29:15;5.70;99.90
17565;DHT22;62994;52.126;5.596;2022-12-07T10:31:47;5.70;99.90
17565;DHT22;62994;52.126;5.596;2022-12-07T10:34:23;5.70;99.90
17565;DHT22;62994;52.126;5.596;2022-12-07T10:37:15;5.80;99.90
17565;DHT22;62994;52.126;5.596;2022-12-07T10:39:46;5.80;99.90
17565;DHT22;62994;52.126;5.596;2022-12-07T10:42:28;5.80;99.90
17565;DHT22;62994;52.126;5.596;2022-12-07T10:45:09;5.90;99.90
17565;DHT22;62994;52.126;5.596;2022-12-07T10:47:45;5.80;99.90
17565;DHT22;62994;52.126;5.596;2022-12-07T10:50:34;5.90;99.90
17565;DHT22;62994;52.126;5.596;2022-12-07T10:56:31;5.90;99.90
17565;DHT22;62994;52.126;5.596;2022-12-07T11:02:31;6.00;99.90
17565;DHT22;62994;52.126;5.596;2022-12-07T11:05:17;6.10;99.90
17565;DHT22;62994;52.126;5.596;2022-12-07T11:07:53;6.10;99.90
17565;DHT22;62994;52.126;5.596;2022-12-07T11:10:33;6.10;99.90
17565;DHT22;62994;52.126;5.596;2022-12-07T11:13:18;6.10;99.90
17565;DHT22;62994;52.126;5.596;2022-12-07T11:16:27;6.20;99.90
17565;DHT22;62994;52.126;5.596;2022-12-07T11:19:15;6.20;99.90
17565;DHT22;62994;52.126;5.596;2022-12-07T11:21:56;6.30;99.90
17565;DHT22;62994;52.126;5.596;2022-12-07T11:24:28;6.30;99.90
17565;DHT22;62994;52.126;5.596;2022-12-07T11:27:08;6.40;99.90
17565;DHT22;62994;52.126;5.596;2022-12-07T11:30:01;6.40;99.90
17565;DHT22;62994;52.126;5.596;2022-12-07T11:35:34;6.50;99.90
17565;DHT22;62994;52.126;5.596;2022-12-07T11:38:10;6.50;99.90
17565;DHT22;62994;52.126;5.596;2022-12-07T11:40:44;6.60;99.90
17565;DHT22;62994;52.126;5.596;2022-12-07T11:43:24;6.60;99.90
17565;DHT22;62994;52.126;5.596;2022-12-07T11:45:58;6.70;99.90
17565;DHT22;62994;52.126;5.596;2022-12-07T11:48:38;6.70;99.90
17565;DHT22;62994;52.126;5.596;2022-12-07T11:51:20;6.70;99.90
17565;DHT22;62994;52.126;5.596;2022-12-07T11:53:54;6.80;99.90
17565;DHT22;62994;52.126;5.596;2022-12-07T11:56:28;6.90;99.90
17565;DHT22;62994;52.126;5.596;2022-12-07T11:59:02;7.00;99.90
17565;DHT22;62994;52.126;5.596;2022-12-07T12:01:42;7.00;99.90
17565;DHT22;62994;52.126;5.596;2022-12-07T12:04:29;7.00;99.90
17565;DHT22;62994;52.126;5.596;2022-12-07T12:07:06;7.00;99.90
17565;DHT22;62994;52.126;5.596;2022-12-07T12:09:41;7.00;99.90
17565;DHT22;62994;52.126;5.596;2022-12-07T12:12:45;7.00;99.90
17565;DHT22;62994;52.126;5.596;2022-12-07T12:15:29;7.10;99.90
17565;DHT22;62994;52.126;5.596;2022-12-07T12:18:35;7.10;99.90
17565;DHT22;62994;52.126;5.596;2022-12-07T12:21:17;7.20;99.90
17565;DHT22;62994;52.126;5.596;2022-12-07T12:23:51;7.30;99.90
17565;DHT22;62994;52.126;5.596;2022-12-07T12:26:31;7.30;99.90
17565;DHT22;62994;52.126;5.596;2022-12-07T12:29:07;7.40;99.90
17565;DHT22;62994;52.126;5.596;2022-12-07T12:32:05;7.40;99.90
17565;DHT22;62994;52.126;5.596;2022-12-07T12:34:39;7.40;99.90
17565;DHT22;62994;52.126;5.596;2022-12-07T12:37:42;7.50;99.90
17565;DHT22;62994;52.126;5.596;2022-12-07T12:40:37;7.50;99.90
17565;DHT22;62994;52.126;5.596;2022-12-07T12:43:41;7.60;99.90
17565;DHT22;62994;52.126;5.596;2022-12-07T12:49:42;7.60;99.90
17565;DHT22;62994;52.126;5.596;2022-12-07T12:55:26;7.70;99.90
17565;DHT22;62994;52.126;5.596;2022-12-07T12:58:29;7.70;99.90
17565;DHT22;62994;52.126;5.596;2022-12-07T13:04:01;7.70;99.90
17565;DHT22;62994;52.126;5.596;2022-12-07T13:06:38;7.80;99.90
17565;DHT22;62994;52.126;5.596;2022-12-07T13:09:19;7.80;99.90
17565;DHT22;62994;52.126;5.596;2022-12-07T13:11:50;7.90;99.90
17565;DHT22;62994;52.126;5.596;2022-12-07T13:14:54;7.90;99.90
17565;DHT22;62994;52.126;5.596;2022-12-07T13:18:00;7.90;99.90
17565;DHT22;62994;52.126;5.596;2022-12-07T13:20:55;7.90;99.90
17565;DHT22;62994;52.126;5.596;2022-12-07T13:23:38;7.80;99.90
17565;DHT22;62994;52.126;5.596;2022-12-07T13:26:22;7.80;99.90
17565;DHT22;62994;52.126;5.596;2022-12-07T13:29:06;7.70;99.90
17565;DHT22;62994;52.126;5.596;2022-12-07T13:31:40;7.60;99.90
17565;DHT22;62994;52.126;5.596;2022-12-07T13:34:29;7.60;99.90
17565;DHT22;62994;52.126;5.596;2022-12-07T13:37:14;7.60;99.90
17565;DHT22;62994;52.126;5.596;2022-12-07T13:39:50;7.60;99.90
17565;DHT22;62994;52.126;5.596;2022-12-07T13:42:22;7.60;99.90
17565;DHT22;62994;52.126;5.596;2022-12-07T13:44:56;7.60;99.90
17565;DHT22;62994;52.126;5.596;2022-12-07T13:47:31;7.60;99.90
17565;DHT22;62994;52.126;5.596;2022-12-07T13:50:23;7.60;99.90
17565;DHT22;62994;52.126;5.596;2022-12-07T13:52:55;7.70;99.90
17565;DHT22;62994;52.126;5.596;2022-12-07T13:55:24;7.70;99.90
17565;DHT22;62994;52.126;5.596;2022-12-07T13:57:53;7.70;99.90
17565;DHT22;62994;52.126;5.596;2022-12-07T14:00:27;7.70;99.90
17565;DHT22;62994;52.126;5.596;2022-12-07T14:03:03;7.70;99.90
17565;DHT22;62994;52.126;5.596;2022-12-07T14:05:31;7.70;99.90
17565;DHT22;62994;52.126;5.596;2022-12-07T14:08:02;7.70;99.90
17565;DHT22;62994;52.126;5.596;2022-12-07T14:10:31;7.60;99.90
17565;DHT22;62994;52.126;5.596;2022-12-07T14:13:24;7.60;99.90
17565;DHT22;62994;52.126;5.596;2022-12-07T14:15:57;7.60;99.90
17565;DHT22;62994;52.126;5.596;2022-12-07T14:18:27;7.60;99.90
17565;DHT22;62994;52.126;5.596;2022-12-07T14:21:04;7.60;99.90
17565;DHT22;62994;52.126;5.596;2022-12-07T14:23:32;7.50;99.90
17565;DHT22;62994;52.126;5.596;2022-12-07T14:26:12;7.50;99.90
17565;DHT22;62994;52.126;5.596;2022-12-07T14:28:42;7.50;99.90
17565;DHT22;62994;52.126;5.596;2022-12-07T14:31:15;7.60;99.90
17565;DHT22;62994;52.126;5.596;2022-12-07T14:33:44;7.70;99.90
17565;DHT22;62994;52.126;5.596;2022-12-07T14:36:12;7.70;99.90
17565;DHT22;62994;52.126;5.596;2022-12-07T14:38:43;7.70;99.90
17565;DHT22;62994;52.126;5.596;2022-12-07T14:41:13;7.60;99.90
17565;DHT22;62994;52.126;5.596;2022-12-07T14:44:01;7.60;99.90
17565;DHT22;62994;52.126;5.596;2022-12-07T14:46:29;7.60;99.90
17565;DHT22;62994;52.126;5.596;2022-12-07T14:48:56;7.60;99.90
17565;DHT22;62994;52.126;5.596;2022-12-07T14:51:24;7.60;99.90
17565;DHT22;62994;52.126;5.596;2022-12-07T14:53:56;7.60;99.90
17565;DHT22;62994;52.126;5.596;2022-12-07T14:56:25;7.60;99.90
17565;DHT22;62994;52.126;5.596;2022-12-07T14:59:01;7.60;99.90
17565;DHT22;62994;52.126;5.596;2022-12-07T15:01:29;7.60;99.90
17565;DHT22;62994;52.126;5.596;2022-12-07T15:03:59;7.50;99.90
17565;DHT22;62994;52.126;5.596;2022-12-07T15:06:27;7.50;99.90
17565;DHT22;62994;52.126;5.596;2022-12-07T15:09:00;7.50;99.90
17565;DHT22;62994;52.126;5.596;2022-12-07T15:11:33;7.50;99.90
17565;DHT22;62994;52.126;5.596;2022-12-07T15:14:00;7.50;99.90
17565;DHT22;62994;52.126;5.596;2022-12-07T15:16:41;7.50;99.90
17565;DHT22;62994;52.126;5.596;2022-12-07T15:19:13;7.50;99.90
17565;DHT22;62994;52.126;5.596;2022-12-07T15:21:41;7.40;99.90
17565;DHT22;62994;52.126;5.596;2022-12-07T15:24:13;7.40;99.90
17565;DHT22;62994;52.126;5.596;2022-12-07T15:26:42;7.40;99.90
17565;DHT22;62994;52.126;5.596;2022-12-07T15:29:10;7.40;99.90
17565;DHT22;62994;52.126;5.596;2022-12-07T15:31:45;7.30;99.90
17565;DHT22;62994;52.126;5.596;2022-12-07T15:34:12;7.30;99.90
17565;DHT22;62994;52.126;5.596;2022-12-07T15:36:39;7.30;99.90
17565;DHT22;62994;52.126;5.596;2022-12-07T15:39:12;7.20;99.90
17565;DHT22;62994;52.126;5.596;2022-12-07T15:41:41;7.20;99.90
17565;DHT22;62994;52.126;5.596;2022-12-07T15:44:14;7.20;99.90
17565;DHT22;62994;52.126;5.596;2022-12-07T15:47:03;7.10;99.90
17565;DHT22;62994;52.126;5.596;2022-12-07T15:49:36;7.10;99.90
17565;DHT22;62994;52.126;5.596;2022-12-07T15:52:09;7.10;99.90
17565;DHT22;62994;52.126;5.596;2022-12-07T15:54:46;7.10;99.90
17565;DHT22;62994;52.126;5.596;2022-12-07T15:57:16;7.10;99.90
17565;DHT22;62994;52.126;5.596;2022-12-07T15:59:44;7.10;99.90
17565;DHT22;62994;52.126;5.596;2022-12-07T16:02:19;7.10;99.90
17565;DHT22;62994;52.126;5.596;2022-12-07T16:04:47;7.00;99.90
17565;DHT22;62994;52.126;5.596;2022-12-07T16:07:14;7.00;99.90
17565;DHT22;62994;52.126;5.596;2022-12-07T16:09:42;7.00;99.90
17565;DHT22;62994;52.126;5.596;2022-12-07T16:12:09;7.00;99.90
17565;DHT22;62994;52.126;5.596;2022-12-07T16:14:36;7.00;99.90
17565;DHT22;62994;52.126;5.596;2022-12-07T16:17:06;7.00;99.90
17565;DHT22;62994;52.126;5.596;2022-12-07T16:19:41;7.00;99.90
17565;DHT22;62994;52.126;5.596;2022-12-07T16:22:10;7.00;99.90
17565;DHT22;62994;52.126;5.596;2022-12-07T16:24:42;7.00;99.90
17565;DHT22;62994;52.126;5.596;2022-12-07T16:27:13;6.90;99.90
17565;DHT22;62994;52.126;5.596;2022-12-07T16:29:40;6.90;99.90
17565;DHT22;62994;52.126;5.596;2022-12-07T16:32:11;6.90;99.90
17565;DHT22;62994;52.126;5.596;2022-12-07T16:34:40;6.90;99.90
17565;DHT22;62994;52.126;5.596;2022-12-07T16:37:15;6.90;99.90
17565;DHT22;62994;52.126;5.596;2022-12-07T16:39:44;6.90;99.90
17565;DHT22;62994;52.126;5.596;2022-12-07T16:42:14;6.90;99.90
17565;DHT22;62994;52.126;5.596;2022-12-07T16:44:43;6.90;99.90
17565;DHT22;62994;52.126;5.596;2022-12-07T16:47:10;6.90;99.90
17565;DHT22;62994;52.126;5.596;2022-12-07T16:49:43;6.80;99.90
17565;DHT22;62994;52.126;5.596;2022-12-07T16:52:10;6.80;99.90